createdAt,value
2023-02-04T00:04:04.670Z,98.36
2023-02-04T00:07:01.420Z,98.32
2023-02-04T00:11:17.338Z,98.68
2023-02-04T00:14:36.568Z,99.12
2023-02-04T00:17:23.436Z,99.33
2023-02-04T00:20:11.132Z,99.26
2023-02-04T00:22:57.759Z,99.28
2023-02-04T00:25:44.427Z,99.24
2023-02-04T00:28:32.271Z,99.14
2023-02-04T00:31:20.277Z,99.20
2023-02-04T00:34:07.155Z,99.12
2023-02-04T00:36:53.643Z,99.13
2023-02-04T00:41:22.665Z,99.47
2023-02-04T00:45:17.904Z,100.00
2023-02-04T00:48:05.148Z,100.00
2023-02-04T00:50:53.180Z,100.00
2023-02-04T00:53:40.690Z,100.00
2023-02-04T00:56:27.325Z,99.94
2023-02-04T00:59:14.480Z,99.92
2023-02-04T01:02:01.168Z,99.68
2023-02-04T01:04:47.897Z,99.80
2023-02-04T01:07:34.860Z,99.79
2023-02-04T01:10:21.680Z,99.70
2023-02-04T01:13:09.394Z,99.62
2023-02-04T01:15:55.863Z,99.74
2023-02-04T01:18:42.548Z,99.70
2023-02-04T01:21:29.329Z,99.53
2023-02-04T01:24:15.959Z,99.51
2023-02-04T01:27:03.554Z,99.45
2023-02-04T01:29:49.923Z,99.39
2023-02-04T01:32:36.778Z,99.38
2023-02-04T01:35:23.415Z,99.00
2023-02-04T01:38:09.886Z,98.97
2023-02-04T01:40:57.991Z,98.70
2023-02-04T01:43:45.885Z,98.70
2023-02-04T01:46:36.014Z,98.79
2023-02-04T01:49:22.866Z,98.58
2023-02-04T01:52:11.534Z,98.47
2023-02-04T01:54:57.920Z,98.19
2023-02-04T01:58:12.484Z,98.31
2023-02-04T02:00:59.382Z,98.47
2023-02-04T02:03:45.796Z,98.58
2023-02-04T02:06:32.427Z,98.44
2023-02-04T02:09:19.575Z,98.51
2023-02-04T02:12:06.267Z,98.59
2023-02-04T02:14:52.956Z,98.49
2023-02-04T02:17:40.713Z,98.46
2023-02-04T02:20:29.754Z,98.39
2023-02-04T02:23:22.714Z,98.20
2023-02-04T02:26:11.154Z,98.14
2023-02-04T02:28:57.973Z,98.22
2023-02-04T02:31:44.496Z,98.06
2023-02-04T02:38:55.490Z,98.04
2023-02-04T02:41:42.094Z,98.01
2023-02-04T02:44:29.715Z,97.76
2023-02-04T02:47:19.431Z,97.39
2023-02-04T02:54:43.254Z,97.32
2023-02-04T02:57:29.914Z,97.32
2023-02-04T03:00:24.105Z,97.09
2023-02-04T03:03:20.220Z,96.85
2023-02-04T03:06:15.302Z,96.80
2023-02-04T03:09:04.912Z,96.88
2023-02-04T03:11:51.396Z,96.84
2023-02-04T03:14:39.140Z,96.83
2023-02-04T03:17:25.735Z,96.61
2023-02-04T03:20:16.379Z,96.48
2023-02-04T03:23:03.638Z,96.69
2023-02-04T03:25:52.662Z,96.72
2023-02-04T03:28:41.033Z,96.62
2023-02-04T03:31:28.042Z,96.49
2023-02-04T03:34:14.391Z,96.29
2023-02-04T03:37:01.439Z,96.04
2023-02-04T03:39:47.812Z,95.93
2023-02-04T03:42:34.956Z,96.11
2023-02-04T03:45:23.715Z,95.95
2023-02-04T03:48:10.327Z,95.77
2023-02-04T03:50:56.494Z,95.72
2023-02-04T03:53:42.747Z,95.72
2023-02-04T03:56:29.533Z,95.59
2023-02-04T03:59:16.238Z,95.62
2023-02-04T04:02:02.531Z,95.27
2023-02-04T04:04:49.217Z,95.27
2023-02-04T04:07:35.661Z,95.01
2023-02-04T04:10:22.059Z,95.07
2023-02-04T04:13:34.602Z,95.13
2023-02-04T04:16:21.055Z,94.99
2023-02-04T04:19:07.493Z,95.03
2023-02-04T04:21:55.916Z,95.02
2023-02-04T04:24:43.000Z,94.97
2023-02-04T04:27:30.242Z,95.36
2023-02-04T04:30:17.080Z,95.24
2023-02-04T04:33:03.736Z,95.09
2023-02-04T04:35:50.081Z,95.52
2023-02-04T04:38:36.499Z,95.76
2023-02-04T04:41:22.842Z,95.94
2023-02-04T04:44:09.559Z,96.51
2023-02-04T04:46:56.204Z,96.60
2023-02-04T04:49:43.174Z,96.75
2023-02-04T04:52:29.626Z,96.63
2023-02-04T04:59:36.270Z,96.36
2023-02-04T05:02:22.717Z,96.56
2023-02-04T05:05:11.153Z,96.09
2023-02-04T05:07:57.790Z,95.82
2023-02-04T05:10:44.221Z,95.85
2023-02-04T05:13:30.779Z,95.85
2023-02-04T05:16:18.326Z,95.76
2023-02-04T05:19:05.105Z,95.48
2023-02-04T05:26:17.126Z,95.56
2023-02-04T05:29:10.425Z,95.65
2023-02-04T05:31:57.101Z,95.63
2023-02-04T05:34:44.187Z,95.53
2023-02-04T05:37:31.185Z,95.48
2023-02-04T05:40:18.003Z,95.31
2023-02-04T05:43:05.101Z,95.08
2023-02-04T05:45:51.291Z,94.93
2023-02-04T05:48:40.110Z,94.64
2023-02-04T05:51:26.820Z,94.62
2023-02-04T05:54:19.651Z,94.39
2023-02-04T05:57:07.622Z,94.26
2023-02-04T05:59:53.984Z,93.92
2023-02-04T06:02:41.098Z,93.48
2023-02-04T06:05:27.738Z,93.59
2023-02-04T06:08:15.908Z,93.60
2023-02-04T06:11:02.122Z,93.31
2023-02-04T06:13:48.882Z,93.18
2023-02-04T06:16:35.512Z,93.37
2023-02-04T06:19:21.825Z,93.21
2023-02-04T06:22:08.575Z,93.26
2023-02-04T06:24:54.935Z,93.00
2023-02-04T06:27:41.286Z,92.88
2023-02-04T06:30:27.889Z,92.83
2023-02-04T06:33:16.615Z,92.62
2023-02-04T06:36:04.230Z,92.64
2023-02-04T06:38:50.806Z,92.47
2023-02-04T06:41:37.573Z,91.90
2023-02-04T06:44:23.759Z,91.85
2023-02-04T06:47:09.884Z,91.54
2023-02-04T06:49:56.063Z,91.59
2023-02-04T06:52:42.339Z,91.62
2023-02-04T06:55:30.124Z,91.76
2023-02-04T06:58:16.513Z,91.72
2023-02-04T07:01:03.253Z,91.60
2023-02-04T07:03:49.510Z,91.21
2023-02-04T07:06:36.023Z,90.55
2023-02-04T07:09:23.266Z,89.19
2023-02-04T07:12:09.963Z,88.59
2023-02-04T07:14:56.062Z,87.41
2023-02-04T07:17:42.590Z,86.81
2023-02-04T07:20:29.124Z,85.24
2023-02-04T07:23:15.569Z,83.53
2023-02-04T07:26:02.415Z,82.18
2023-02-04T07:28:56.754Z,81.67
2023-02-04T07:31:43.774Z,80.48
2023-02-04T07:34:30.631Z,78.88
2023-02-04T07:37:17.603Z,77.93
2023-02-04T07:40:04.954Z,76.74
2023-02-04T07:42:51.305Z,74.39
2023-02-04T07:45:37.839Z,73.45
2023-02-04T07:48:24.392Z,70.74
2023-02-04T07:51:10.751Z,70.36
2023-02-04T07:53:57.293Z,69.16
2023-02-04T07:56:46.480Z,67.78
2023-02-04T07:59:33.126Z,66.44
2023-02-04T08:02:19.481Z,66.47
2023-02-04T08:05:15.702Z,64.82
2023-02-04T08:08:03.036Z,64.46
2023-02-04T08:10:52.458Z,64.85
2023-02-04T08:13:39.009Z,63.23
2023-02-04T08:17:36.013Z,61.71
2023-02-04T08:21:37.682Z,61.49
2023-02-04T08:24:24.197Z,62.19
2023-02-04T08:27:11.726Z,62.02
2023-02-04T08:30:04.946Z,61.31
2023-02-04T08:32:51.682Z,61.18
2023-02-04T08:35:38.387Z,59.96
2023-02-04T08:39:16.259Z,59.25
2023-02-04T08:42:04.222Z,59.82
2023-02-04T08:44:55.410Z,59.87
2023-02-04T08:49:23.057Z,59.59
2023-02-04T08:52:10.196Z,59.35
2023-02-04T08:54:56.923Z,57.90
2023-02-04T08:57:44.244Z,58.73
2023-02-04T09:00:32.533Z,57.37
2023-02-04T09:03:38.459Z,50.89
2023-02-04T09:06:25.186Z,53.73
2023-02-04T09:09:13.108Z,55.91
2023-02-04T09:12:02.010Z,54.38
2023-02-04T09:14:48.600Z,52.72
2023-02-04T09:17:35.833Z,51.67
2023-02-04T09:20:22.822Z,50.04
2023-02-04T09:23:10.712Z,48.74
2023-02-04T09:25:58.659Z,47.74
2023-02-04T09:28:45.423Z,46.68
2023-02-04T09:31:34.160Z,45.63
2023-02-04T09:34:20.741Z,44.73
2023-02-04T09:39:29.317Z,41.66
2023-02-04T09:43:30.640Z,41.96
2023-02-04T11:14:02.634Z,62.99
2023-02-04T11:17:00.919Z,65.71
2023-02-04T12:12:09.008Z,61.19
2023-02-04T12:15:19.062Z,59.38
2023-02-04T12:18:15.691Z,59.20
2023-02-04T12:24:53.378Z,61.34
2023-02-04T12:46:20.426Z,54.15
2023-02-04T12:50:07.003Z,51.04
2023-02-04T12:53:57.482Z,50.78
2023-02-04T13:00:01.520Z,55.54
2023-02-04T13:12:25.245Z,57.40
2023-02-04T13:26:09.001Z,51.83
2023-02-04T13:28:56.159Z,54.16
2023-02-04T13:31:58.118Z,55.64
2023-02-04T13:34:44.490Z,53.28
2023-02-04T13:37:30.854Z,52.48
2023-02-04T13:40:27.581Z,51.43
2023-02-04T13:58:14.930Z,33.37
2023-02-04T14:26:39.420Z,47.17
2023-02-04T14:40:29.359Z,51.02
2023-02-04T14:44:00.244Z,52.80
2023-02-04T14:47:33.103Z,54.08
2023-02-04T14:51:44.038Z,55.55
2023-02-04T14:54:30.566Z,56.82
2023-02-04T14:57:17.207Z,56.64
2023-02-04T15:00:06.874Z,57.15
2023-02-04T15:02:54.668Z,57.53
2023-02-04T15:05:52.853Z,58.00
2023-02-04T15:09:48.478Z,59.52
2023-02-04T15:24:39.744Z,61.40
2023-02-04T15:27:38.112Z,61.74
2023-02-04T15:30:24.688Z,62.30
2023-02-04T15:33:18.093Z,62.79
2023-02-04T15:36:04.566Z,62.71
2023-02-04T15:39:25.047Z,63.29
2023-02-04T15:45:00.815Z,64.11
2023-02-04T15:48:57.866Z,64.92
2023-02-04T15:52:55.056Z,65.97
2023-02-04T16:07:20.443Z,65.02
2023-02-04T16:10:22.100Z,65.33
2023-02-04T16:13:58.822Z,66.00
2023-02-04T16:17:39.460Z,66.36
2023-02-04T16:21:08.774Z,66.80
2023-02-04T16:25:06.961Z,67.20
2023-02-04T16:29:08.247Z,66.75
2023-02-04T16:43:07.141Z,66.53
2023-02-04T16:45:53.685Z,66.68
2023-02-04T16:48:40.114Z,66.56
2023-02-04T16:51:26.876Z,66.78
2023-02-04T16:54:14.385Z,67.07
2023-02-04T16:57:18.805Z,67.56
2023-02-04T17:01:19.597Z,67.63
2023-02-04T17:05:39.873Z,68.05
2023-02-04T17:09:14.837Z,67.91
2023-02-04T17:22:57.198Z,67.92
2023-02-04T17:26:11.382Z,68.08
2023-02-04T17:28:57.855Z,68.18
2023-02-04T17:31:44.482Z,68.45
2023-02-04T17:34:31.308Z,68.59
2023-02-04T17:37:17.792Z,68.39
2023-02-04T17:40:05.564Z,68.43
2023-02-04T17:42:52.243Z,68.37
2023-02-04T17:45:38.905Z,68.64
2023-02-04T17:48:25.522Z,68.79
2023-02-04T17:51:13.828Z,69.24
2023-02-04T17:54:00.000Z,69.33
2023-02-04T17:56:52.391Z,69.26
2023-02-04T17:59:39.906Z,68.85
2023-02-04T18:02:33.956Z,68.88
2023-02-04T18:05:24.291Z,68.88
2023-02-04T18:08:19.535Z,68.10
2023-02-04T18:11:15.624Z,67.66
2023-02-04T18:14:12.030Z,67.75
2023-02-04T18:16:59.597Z,68.46
2023-02-04T18:24:19.521Z,69.15
2023-02-04T18:27:30.463Z,69.13
2023-02-04T18:30:26.430Z,69.22
2023-02-04T18:33:20.814Z,69.57
2023-02-04T18:36:12.106Z,69.07
2023-02-04T18:38:59.673Z,69.05
2023-02-04T18:41:51.283Z,68.91
2023-02-04T18:44:38.579Z,68.87
2023-02-04T18:47:36.014Z,68.95
2023-02-04T18:50:33.194Z,68.47
2023-02-04T18:53:22.319Z,68.76
2023-02-04T18:56:15.925Z,69.41
2023-02-04T18:59:10.207Z,69.26
2023-02-04T19:01:56.426Z,69.35
2023-02-04T19:04:43.850Z,69.40
2023-02-04T19:07:34.840Z,69.64
2023-02-04T19:10:28.963Z,69.76
2023-02-04T19:13:21.599Z,69.81
2023-02-04T19:16:17.679Z,69.97
2023-02-04T19:19:29.437Z,69.81
2023-02-04T19:22:40.627Z,70.17
2023-02-04T19:25:56.996Z,70.21
2023-02-04T19:28:44.621Z,70.30
2023-02-04T19:31:35.012Z,70.22
2023-02-04T19:34:24.380Z,70.19
2023-02-04T19:37:43.749Z,70.33
2023-02-04T19:40:37.610Z,70.72
2023-02-04T19:43:33.776Z,70.89
2023-02-04T19:46:26.746Z,71.08
2023-02-04T19:49:28.826Z,71.34
2023-02-04T19:52:33.885Z,71.29
2023-02-04T19:55:27.397Z,71.58
2023-02-04T19:58:19.620Z,71.72
2023-02-04T20:01:11.376Z,71.81
2023-02-04T20:04:00.259Z,71.83
2023-02-04T20:06:47.952Z,71.91
2023-02-04T20:09:35.462Z,71.79
2023-02-04T20:12:22.376Z,72.07
2023-02-04T20:15:18.878Z,71.79
2023-02-04T20:18:23.982Z,71.61
2023-02-04T20:21:11.635Z,71.69
2023-02-04T20:23:58.101Z,71.86
2023-02-04T20:26:45.440Z,71.71
2023-02-04T20:29:34.575Z,72.05
2023-02-04T20:32:26.443Z,71.99
2023-02-04T20:35:18.909Z,71.97
2023-02-04T20:38:16.524Z,72.35
2023-02-04T20:41:15.286Z,72.71
2023-02-04T20:44:02.613Z,72.67
2023-02-04T20:46:48.871Z,72.47
2023-02-04T20:49:40.863Z,72.71
2023-02-04T20:52:46.094Z,72.74
2023-02-04T20:55:34.548Z,72.87
2023-02-04T20:58:24.614Z,73.04
2023-02-04T21:01:29.054Z,73.23
2023-02-04T21:04:29.353Z,73.39
2023-02-04T21:07:19.141Z,73.74
2023-02-04T21:10:06.028Z,73.59
2023-02-04T21:12:52.547Z,73.41
2023-02-04T21:15:43.163Z,73.73
2023-02-04T21:18:50.977Z,73.99
2023-02-04T21:21:51.746Z,73.95
2023-02-04T21:24:56.024Z,73.90
2023-02-04T21:27:53.739Z,74.11
2023-02-04T21:30:55.928Z,74.36
2023-02-04T21:34:01.048Z,74.95
2023-02-04T21:36:50.793Z,74.95
2023-02-04T21:39:43.121Z,75.23
2023-02-04T21:43:03.273Z,75.56
2023-02-04T21:45:59.342Z,75.81
2023-02-04T21:48:46.530Z,75.80
2023-02-04T21:51:33.310Z,76.09
2023-02-04T21:54:20.194Z,76.13
2023-02-04T21:57:06.803Z,76.57
2023-02-04T21:59:54.565Z,76.61
2023-02-04T22:02:43.447Z,76.78
2023-02-04T22:05:33.123Z,77.11
2023-02-04T22:08:19.954Z,77.30
2023-02-04T22:11:06.533Z,77.52
2023-02-04T22:13:54.530Z,77.61
2023-02-04T22:16:41.313Z,77.67
2023-02-04T22:19:28.280Z,77.97
2023-02-04T22:22:15.200Z,77.95
2023-02-04T22:25:02.411Z,77.99
2023-02-04T22:27:48.919Z,77.95
2023-02-04T22:30:35.982Z,78.31
2023-02-04T22:33:22.547Z,78.26
2023-02-04T22:36:12.300Z,78.47
2023-02-04T22:38:58.956Z,78.79
2023-02-04T22:41:45.648Z,78.98
2023-02-04T22:44:32.629Z,78.92
2023-02-04T22:47:19.319Z,79.11
2023-02-04T22:50:06.452Z,79.30
2023-02-04T22:52:52.811Z,79.73
2023-02-04T22:55:39.881Z,79.91
2023-02-04T22:58:26.735Z,79.90
2023-02-04T23:01:13.576Z,79.72
2023-02-04T23:04:00.427Z,79.90
2023-02-04T23:06:50.326Z,80.08
2023-02-04T23:09:37.009Z,80.48
2023-02-04T23:12:24.295Z,80.48
2023-02-04T23:15:12.750Z,80.54
2023-02-04T23:18:00.626Z,80.66
2023-02-04T23:20:47.385Z,80.80
2023-02-04T23:23:34.031Z,80.83
2023-02-04T23:26:21.154Z,80.38
2023-02-04T23:29:07.771Z,80.37
2023-02-04T23:31:55.926Z,80.66
2023-02-04T23:34:42.398Z,80.57
2023-02-04T23:37:29.186Z,80.69
2023-02-04T23:40:15.950Z,80.55
2023-02-04T23:43:02.391Z,81.02
2023-02-04T23:45:49.235Z,81.13
2023-02-04T23:48:35.918Z,81.47
2023-02-04T23:51:22.663Z,81.59
2023-02-04T23:54:09.146Z,81.82
2023-02-04T23:56:56.083Z,81.97
2023-02-04T23:59:42.634Z,81.45
